createdAt,value
2019-03-20T00:00:00.383Z,5.37
2019-03-20T00:05:07.066Z,5.23
2019-03-20T00:10:12.535Z,5.17
2019-03-20T00:15:17.858Z,6.20
2019-03-20T00:20:22.959Z,4.77
2019-03-20T00:25:28.085Z,5.00
2019-03-20T00:30:33.504Z,4.90
2019-03-20T00:35:38.579Z,4.73
2019-03-20T00:40:43.720Z,4.80
2019-03-20T00:45:48.907Z,4.20
2019-03-20T00:50:54.032Z,4.57
2019-03-20T00:55:59.209Z,3.93
2019-03-20T01:01:04.432Z,4.20
2019-03-20T01:06:09.469Z,4.42
2019-03-20T01:11:14.558Z,4.58
2019-03-20T01:16:19.714Z,4.40
2019-03-20T01:21:25.613Z,4.23
2019-03-20T01:26:30.740Z,4.23
2019-03-20T01:31:35.867Z,4.43
2019-03-20T01:36:41.111Z,4.63
2019-03-20T01:41:46.293Z,3.90
2019-03-20T01:46:51.357Z,4.40
2019-03-20T01:51:56.503Z,3.90
2019-03-20T01:57:01.537Z,4.20
2019-03-20T02:02:06.689Z,6.40
2019-03-20T02:07:11.857Z,6.00
2019-03-20T02:12:16.940Z,4.85
2019-03-20T02:17:21.988Z,4.43
2019-03-20T02:22:27.380Z,4.90
2019-03-20T02:27:32.477Z,4.30
2019-03-20T02:32:37.811Z,5.23
2019-03-20T02:37:43.039Z,4.20
2019-03-20T02:42:48.080Z,5.50
2019-03-20T02:47:53.239Z,5.13
2019-03-20T02:52:59.386Z,4.70
2019-03-20T02:58:04.668Z,5.07
2019-03-20T03:03:09.870Z,4.97
2019-03-20T03:08:14.969Z,4.60
2019-03-20T03:13:20.037Z,5.00
2019-03-20T03:18:25.092Z,4.73
2019-03-20T03:23:30.271Z,3.57
2019-03-20T03:28:35.373Z,3.77
2019-03-20T03:33:40.835Z,3.60
2019-03-20T03:38:45.948Z,3.17
2019-03-20T03:43:51.179Z,3.53
2019-03-20T03:48:56.256Z,3.90
2019-03-20T03:54:01.411Z,4.00
2019-03-20T03:59:06.523Z,4.10
2019-03-20T04:04:11.574Z,4.17
2019-03-20T04:09:16.729Z,4.22
2019-03-20T04:14:21.763Z,3.97
2019-03-20T04:19:26.826Z,4.50
2019-03-20T04:24:31.903Z,4.60
2019-03-20T04:29:37.025Z,4.37
2019-03-20T04:34:42.319Z,4.03
2019-03-20T04:39:47.365Z,3.53
2019-03-20T04:44:52.615Z,3.93
2019-03-20T04:49:57.733Z,3.20
2019-03-20T04:55:02.897Z,3.80
2019-03-20T05:00:19.036Z,4.90
2019-03-20T05:05:24.086Z,4.33
2019-03-20T05:10:29.350Z,4.27
2019-03-20T05:15:34.442Z,4.80
2019-03-20T05:20:39.582Z,4.50
2019-03-20T05:25:44.692Z,4.20
2019-03-20T05:30:49.808Z,5.20
2019-03-20T05:35:56.783Z,4.40
2019-03-20T05:41:01.822Z,4.23
2019-03-20T05:46:06.961Z,4.23
2019-03-20T05:51:12.184Z,4.78
2019-03-20T05:56:17.299Z,4.77
2019-03-20T06:01:22.475Z,4.30
2019-03-20T06:06:27.673Z,4.43
2019-03-20T06:11:32.853Z,5.00
2019-03-20T06:16:38.915Z,5.07
2019-03-20T06:21:44.084Z,4.47
2019-03-20T06:26:49.155Z,5.10
2019-03-20T06:31:54.287Z,4.57
2019-03-20T06:36:59.763Z,4.63
2019-03-20T06:42:05.295Z,4.77
2019-03-20T06:47:10.419Z,5.20
2019-03-20T06:52:15.507Z,5.13
2019-03-20T06:57:20.610Z,5.28
2019-03-20T07:02:25.488Z,4.80
2019-03-20T07:07:43.466Z,5.03
2019-03-20T07:12:40.366Z,4.60
2019-03-20T07:17:45.448Z,8.93
2019-03-20T07:22:50.560Z,7.00
2019-03-20T07:27:55.624Z,4.40
2019-03-20T07:33:00.740Z,5.03
2019-03-20T07:38:06.112Z,7.63
2019-03-20T07:43:11.154Z,4.10
2019-03-20T07:48:21.984Z,4.57
2019-03-20T07:53:23.183Z,3.97
2019-03-20T07:58:28.321Z,3.83
2019-03-20T08:03:33.646Z,3.23
2019-03-20T08:08:38.696Z,4.00
2019-03-20T08:13:43.895Z,4.37
2019-03-20T08:18:48.949Z,4.00
2019-03-20T08:23:54.176Z,3.97
2019-03-20T08:28:59.195Z,3.10
2019-03-20T08:34:04.931Z,3.87
2019-03-20T08:39:10.020Z,3.37
2019-03-20T08:44:15.190Z,3.90
2019-03-20T08:49:20.288Z,7.62
2019-03-20T08:54:25.451Z,2.85
2019-03-20T08:59:30.579Z,2.87
2019-03-20T09:04:35.915Z,2.70
2019-03-20T09:09:40.989Z,2.60
2019-03-20T09:14:46.080Z,5.17
2019-03-20T09:19:51.174Z,3.20
2019-03-20T09:24:56.213Z,2.60
2019-03-20T09:30:01.735Z,3.33
2019-03-20T09:35:07.417Z,3.02
2019-03-20T09:40:19.772Z,3.53
2019-03-20T09:45:25.567Z,2.80
2019-03-20T09:50:31.164Z,2.17
2019-03-20T09:55:36.338Z,2.73
2019-03-20T10:00:41.539Z,2.87
2019-03-20T10:05:46.699Z,4.70
2019-03-20T10:10:51.862Z,4.40
2019-03-20T10:15:57.116Z,2.80
2019-03-20T10:21:02.307Z,3.07
2019-03-20T10:26:07.772Z,2.90
2019-03-20T10:31:12.914Z,6.10
2019-03-20T10:36:17.990Z,2.83
2019-03-20T10:41:24.344Z,2.37
2019-03-20T10:46:29.610Z,2.10
2019-03-20T10:51:34.818Z,2.40
2019-03-20T10:56:40.336Z,2.10
2019-03-20T11:01:45.751Z,2.67
2019-03-20T11:06:50.969Z,2.67
2019-03-20T11:11:57.762Z,1.93
2019-03-20T11:17:02.887Z,2.53
2019-03-20T11:22:18.382Z,1.70
2019-03-20T11:27:15.837Z,2.52
2019-03-20T11:32:20.934Z,2.30
2019-03-20T11:37:26.415Z,2.77
2019-03-20T11:42:32.034Z,2.55
2019-03-20T11:47:37.162Z,2.57
2019-03-20T11:52:42.418Z,2.83
2019-03-20T11:57:47.637Z,2.70
2019-03-20T12:02:52.869Z,3.23
2019-03-20T12:07:58.150Z,3.37
2019-03-20T12:13:04.658Z,3.00
2019-03-20T12:18:09.797Z,4.37
2019-03-20T12:23:14.866Z,3.15
2019-03-20T12:28:20.415Z,2.30
2019-03-20T12:33:25.595Z,17.70
2019-03-20T12:38:31.908Z,4.07
2019-03-20T12:43:37.441Z,7.07
2019-03-20T12:48:43.009Z,7.53
2019-03-20T12:53:48.251Z,3.40
2019-03-20T12:58:53.413Z,6.80
2019-03-20T13:03:58.806Z,2.90
2019-03-20T13:09:07.356Z,2.40
2019-03-20T13:14:12.581Z,1.90
2019-03-20T13:19:17.774Z,2.15
2019-03-20T13:24:22.981Z,2.07
2019-03-20T13:29:28.091Z,1.87
2019-03-20T13:34:33.322Z,2.90
2019-03-20T13:39:38.472Z,2.50
2019-03-20T13:44:43.821Z,6.22
2019-03-20T13:49:49.145Z,5.57
2019-03-20T13:54:54.259Z,2.87
2019-03-20T13:59:59.425Z,2.50
2019-03-20T14:05:06.213Z,2.73
2019-03-20T14:10:24.289Z,3.13
2019-03-20T14:15:22.220Z,4.40
2019-03-20T14:20:29.370Z,6.80
2019-03-20T14:25:34.609Z,3.87
2019-03-20T14:30:39.903Z,26.03
2019-03-20T14:35:45.261Z,6.27
2019-03-20T14:40:50.429Z,16.00
2019-03-20T14:45:55.699Z,28.70
2019-03-20T14:51:01.129Z,35.50
2019-03-20T14:56:06.339Z,6.27
2019-03-20T15:01:11.533Z,2.90
2019-03-20T15:06:16.750Z,3.30
2019-03-20T15:11:21.966Z,3.27
2019-03-20T15:16:27.218Z,4.60
2019-03-20T15:21:32.265Z,9.10
2019-03-20T15:26:37.468Z,3.00
2019-03-20T15:31:42.649Z,3.00
2019-03-20T15:36:48.834Z,3.13
2019-03-20T15:41:53.876Z,3.50
2019-03-20T15:46:59.144Z,3.80
2019-03-20T15:52:04.370Z,3.93
2019-03-20T15:57:09.587Z,3.40
2019-03-20T16:02:14.715Z,5.70
2019-03-20T16:07:19.927Z,4.33
2019-03-20T16:12:25.121Z,5.23
2019-03-20T16:17:30.295Z,4.10
2019-03-20T16:22:35.433Z,4.33
2019-03-20T16:27:40.631Z,4.53
2019-03-20T16:32:45.944Z,4.10
2019-03-20T16:37:51.088Z,6.10
2019-03-20T16:42:56.371Z,5.93
2019-03-20T16:48:01.690Z,5.30
2019-03-20T16:53:06.944Z,5.30
2019-03-20T16:58:12.058Z,5.70
2019-03-20T17:03:17.263Z,5.90
2019-03-20T17:08:23.688Z,6.77
2019-03-20T17:13:28.805Z,5.87
2019-03-20T17:18:33.896Z,8.10
2019-03-20T17:23:39.102Z,19.67
2019-03-20T17:28:44.262Z,6.40
2019-03-20T17:33:49.485Z,7.33
2019-03-20T17:38:54.561Z,10.00
2019-03-20T17:43:59.641Z,6.63
2019-03-20T17:49:05.260Z,17.70
2019-03-20T17:54:10.485Z,7.70
2019-03-20T17:59:15.677Z,7.63
2019-03-20T18:04:20.791Z,8.35
2019-03-20T18:09:25.984Z,9.67
2019-03-20T18:14:31.108Z,9.30
2019-03-20T18:19:36.274Z,8.50
2019-03-20T18:24:41.374Z,9.53
2019-03-20T18:29:46.669Z,8.80
2019-03-20T18:34:51.854Z,9.90
2019-03-20T18:39:57.008Z,11.33
2019-03-20T18:45:02.082Z,10.57
2019-03-20T18:50:10.183Z,13.90
2019-03-20T18:55:17.461Z,11.17
2019-03-20T19:00:27.515Z,12.20
2019-03-20T19:05:35.745Z,11.95
2019-03-20T19:10:41.297Z,11.87
2019-03-20T19:15:46.492Z,13.33
2019-03-20T19:20:51.831Z,13.83
2019-03-20T19:25:56.985Z,15.78
2019-03-20T19:31:02.162Z,17.13
2019-03-20T19:36:07.443Z,16.47
2019-03-20T19:41:12.605Z,17.07
2019-03-20T19:46:17.799Z,17.07
2019-03-20T19:51:22.968Z,15.80
2019-03-20T19:56:28.220Z,17.20
2019-03-20T20:01:33.682Z,17.10
2019-03-20T20:06:38.810Z,17.77
2019-03-20T20:11:44.195Z,18.27
2019-03-20T20:16:49.270Z,15.47
2019-03-20T20:21:54.449Z,15.57
2019-03-20T20:26:59.633Z,14.20
2019-03-20T20:32:04.864Z,13.97
2019-03-20T20:37:10.068Z,13.68
2019-03-20T20:42:15.136Z,12.20
2019-03-20T20:47:20.377Z,12.47
2019-03-20T20:52:25.735Z,10.90
2019-03-20T20:57:30.871Z,10.93
2019-03-20T21:02:35.987Z,8.90
2019-03-20T21:07:41.155Z,25.83
2019-03-20T21:12:55.484Z,7.20
2019-03-20T21:17:59.268Z,5.97
2019-03-20T21:23:38.003Z,6.07
2019-03-20T21:29:11.827Z,5.40
2019-03-20T21:34:22.643Z,4.47
2019-03-20T21:39:27.716Z,4.67
2019-03-20T21:44:47.999Z,4.33
2019-03-20T21:49:53.088Z,4.00
2019-03-20T21:55:18.277Z,12.20
2019-03-20T22:00:52.006Z,4.85
2019-03-20T22:06:06.152Z,5.17
2019-03-20T22:11:32.318Z,5.03
2019-03-20T22:17:09.088Z,8.70
2019-03-20T22:22:48.841Z,6.42
2019-03-20T22:28:08.820Z,12.17
2019-03-20T22:33:41.960Z,24.10
2019-03-20T22:39:06.557Z,7.10
2019-03-20T22:44:11.688Z,7.65
2019-03-20T22:49:25.977Z,7.87
2019-03-20T22:54:56.980Z,8.63
2019-03-20T23:00:02.529Z,9.13
2019-03-20T23:05:10.845Z,9.80
2019-03-20T23:10:18.652Z,9.43
2019-03-20T23:15:24.092Z,9.67
2019-03-20T23:20:29.917Z,12.10
2019-03-20T23:25:35.018Z,11.73
2019-03-20T23:30:40.620Z,13.33
2019-03-20T23:35:45.780Z,13.30
2019-03-20T23:40:50.882Z,12.93
2019-03-20T23:45:56.398Z,13.10
2019-03-20T23:51:05.306Z,13.53
2019-03-20T23:56:11.760Z,15.23
